Archival Weather

Fukuoka

Fukuoka, Japan (RJFF)

Report from: Monday, August 15, 2022 6:30 PM JST
Current time: Sunday, February 25, 2024 1:06 AM JST

Current weather – Weather history – Daily summaries
Weather forecast

Present weatherLight rain showers
Temperature31.0°C (87.8°F)
Heat index37.8°C (100.0°F)
Dew point25.0°C (77.0°F)
Winds 11 kts (5.7 m/s, 12.7 mph) South (170°)
Visibility6.2 mi. (10 km)
Clouds Ceiling: Broken clouds 0 ft. (0 m)
Few clouds 1,500 ft. (457 m)
Scattered clouds 3,500 ft. (1,067 m)
Altimeter29.71 in.Hg (1006 mB)
Relative humidity71 %
Density altitude2,497 ft. (761 m)
Remarks No significant changes expected in the next two hours
Flight conditions Low Instrument Meteorological Conditions
Raw dataRJFF 150930Z 17011KT 9999 -SHRA FEW015 SCT035 BKN/// 31/25 Q1006 NOSIG RMK 1CU015 4CU035 A2972
An error has occurred. This application may no longer respond until reloaded. Reload 🗙